Terminal Aerodrome Forecast
Issued by NWS

Home | Current Version | Previous Version | Text Only | Print | Product List | Glossary On
Versions: 1 2 3 4 5 6 7 8 9 10 11 12 13 14 15 16
004
FTUS45 KPIH 191120
TAFSUN
TAF
KSUN 191120Z 1912/2018 32008KT P6SM VCSH SCT040 SCT080
     FM191800 20011KT P6SM VCSH SCT035 BKN070
     FM200200 31009KT P6SM SCT035 BKN070
     FM201000 31008KT P6SM VCSH BKN035 OVC060
      AMD LTD TO CLD VIS AND WIND TIL 191300=

USA.gov is the U.S. government's official web portal to all federal, state and local government web resources and services.